createdAt,value
2018-07-08T00:00:15.122Z,0.60
2018-07-08T00:02:43.178Z,0.60
2018-07-08T00:05:11.236Z,0.90
2018-07-08T00:07:39.299Z,0.57
2018-07-08T00:10:07.387Z,1.00
2018-07-08T00:12:35.462Z,0.77
2018-07-08T00:15:03.547Z,0.70
2018-07-08T00:17:31.631Z,0.50
2018-07-08T00:19:59.719Z,0.93
2018-07-08T00:22:27.779Z,0.47
2018-07-08T00:24:55.857Z,0.90
2018-07-08T00:27:23.939Z,0.80
2018-07-08T00:29:52.011Z,0.60
2018-07-08T00:32:20.095Z,0.97
2018-07-08T00:34:48.155Z,1.57
2018-07-08T00:37:16.230Z,1.93
2018-07-08T00:39:44.347Z,0.77
2018-07-08T00:42:12.401Z,1.03
2018-07-08T00:44:40.610Z,1.73
2018-07-08T00:47:08.685Z,0.90
2018-07-08T00:49:36.795Z,0.73
2018-07-08T00:52:04.874Z,0.60
2018-07-08T00:54:32.959Z,1.43
2018-07-08T00:57:01.048Z,0.40
2018-07-08T00:59:29.174Z,0.40
2018-07-08T01:01:57.255Z,0.60
2018-07-08T01:04:25.343Z,1.40
2018-07-08T01:06:53.450Z,0.67
2018-07-08T01:09:21.567Z,0.73
2018-07-08T01:11:49.691Z,1.80
2018-07-08T01:14:17.802Z,0.70
2018-07-08T01:16:45.875Z,0.83
2018-07-08T01:19:13.979Z,0.90
2018-07-08T01:21:42.075Z,1.37
2018-07-08T01:24:10.186Z,0.60
2018-07-08T01:26:38.371Z,0.60
2018-07-08T01:29:06.475Z,0.87
2018-07-08T01:31:34.555Z,0.70
2018-07-08T01:34:02.657Z,0.40
2018-07-08T01:36:30.760Z,0.77
2018-07-08T01:38:58.854Z,0.63
2018-07-08T01:41:26.936Z,1.27
2018-07-08T01:43:55.034Z,1.10
2018-07-08T01:46:23.111Z,0.47
2018-07-08T01:48:51.216Z,1.17
2018-07-08T01:51:19.310Z,0.60
2018-07-08T01:53:47.391Z,1.03
2018-07-08T01:56:15.487Z,0.73
2018-07-08T01:58:43.607Z,0.50
2018-07-08T02:01:11.679Z,0.50
2018-07-08T02:03:39.747Z,0.50
2018-07-08T02:06:08.063Z,0.97
2018-07-08T02:08:36.675Z,0.40
2018-07-08T02:11:04.782Z,0.50
2018-07-08T02:13:32.843Z,0.53
2018-07-08T02:16:00.966Z,0.37
2018-07-08T02:18:29.033Z,0.60
2018-07-08T02:20:57.107Z,0.40
2018-07-08T02:23:25.251Z,0.70
2018-07-08T02:25:53.369Z,0.70
2018-07-08T02:28:21.436Z,0.40
2018-07-08T02:30:49.619Z,0.53
2018-07-08T02:33:17.911Z,0.50
2018-07-08T02:35:46.007Z,0.40
2018-07-08T02:38:14.062Z,0.50
2018-07-08T02:40:42.319Z,0.53
2018-07-08T02:43:10.669Z,0.30
2018-07-08T02:45:38.743Z,0.50
2018-07-08T02:48:06.854Z,0.97
2018-07-08T02:50:34.918Z,1.00
2018-07-08T02:53:02.983Z,1.03
2018-07-08T02:55:31.050Z,0.40
2018-07-08T02:57:59.106Z,0.50
2018-07-08T03:00:27.167Z,0.53
2018-07-08T03:02:55.235Z,0.70
2018-07-08T03:05:23.290Z,0.60
2018-07-08T03:07:51.206Z,0.50
2018-07-08T03:10:19.292Z,0.83
2018-07-08T03:12:47.371Z,0.60
2018-07-08T03:15:15.421Z,0.73
2018-07-08T03:17:43.484Z,0.30
2018-07-08T03:20:11.634Z,0.83
2018-07-08T03:22:39.708Z,0.87
2018-07-08T03:25:07.767Z,0.60
2018-07-08T03:27:35.832Z,0.83
2018-07-08T03:30:03.875Z,0.57
2018-07-08T03:32:31.939Z,0.80
2018-07-08T03:34:59.991Z,0.67
2018-07-08T03:37:28.053Z,0.60
2018-07-08T03:39:56.103Z,1.03
2018-07-08T03:42:24.165Z,0.80
2018-07-08T03:44:52.211Z,0.70
2018-07-08T03:47:20.286Z,0.60
2018-07-08T03:49:48.335Z,0.63
2018-07-08T03:52:16.394Z,0.93
2018-07-08T03:54:44.459Z,0.57
2018-07-08T03:57:12.523Z,0.80
2018-07-08T03:59:40.590Z,0.73
2018-07-08T04:02:08.687Z,0.33
2018-07-08T04:04:36.754Z,0.40
2018-07-08T04:07:04.972Z,0.53
2018-07-08T04:09:33.017Z,1.00
2018-07-08T04:12:01.078Z,0.50
2018-07-08T04:14:29.027Z,0.60
2018-07-08T04:16:57.080Z,0.50
2018-07-08T04:19:25.146Z,0.70
2018-07-08T04:21:53.471Z,0.57
2018-07-08T04:24:21.758Z,0.70
2018-07-08T04:26:49.819Z,0.30
2018-07-08T04:29:17.918Z,0.87
2018-07-08T04:31:46.291Z,0.30
2018-07-08T04:34:14.343Z,0.50
2018-07-08T04:36:42.424Z,0.70
2018-07-08T04:39:10.601Z,0.40
2018-07-08T04:41:38.702Z,0.60
2018-07-08T04:44:06.787Z,0.60
2018-07-08T04:46:34.862Z,0.60
2018-07-08T04:49:02.928Z,0.40
2018-07-08T04:51:31.260Z,0.43
2018-07-08T04:53:59.330Z,0.57
2018-07-08T04:56:27.506Z,0.70
2018-07-08T04:58:55.698Z,0.53
2018-07-08T05:01:24.044Z,1.10
2018-07-08T05:03:52.113Z,0.50
2018-07-08T05:06:20.223Z,0.30
2018-07-08T05:08:48.572Z,0.40
2018-07-08T05:11:16.647Z,1.10
2018-07-08T05:13:44.715Z,1.07
2018-07-08T05:16:12.771Z,0.43
2018-07-08T05:18:41.090Z,0.97
2018-07-08T05:21:09.286Z,0.63
2018-07-08T05:23:37.355Z,0.60
2018-07-08T05:26:05.603Z,0.87
2018-07-08T05:28:33.739Z,0.27
2018-07-08T05:31:02.046Z,0.50
2018-07-08T05:33:30.201Z,0.50
2018-07-08T05:35:58.252Z,0.40
2018-07-08T05:38:26.339Z,0.57
2018-07-08T05:40:54.393Z,1.03
2018-07-08T05:43:22.503Z,0.50
2018-07-08T05:45:50.655Z,0.60
2018-07-08T05:48:18.723Z,0.30
2018-07-08T05:50:46.819Z,0.40
2018-07-08T05:53:15.171Z,0.43
2018-07-08T05:55:43.234Z,0.40
2018-07-08T05:58:11.294Z,0.23
2018-07-08T06:00:39.342Z,0.63
2018-07-08T06:03:07.291Z,0.30
2018-07-08T06:05:35.347Z,0.50
2018-07-08T06:08:03.489Z,0.50
2018-07-08T06:10:31.683Z,0.50
2018-07-08T06:12:59.743Z,0.57
2018-07-08T06:15:27.821Z,0.40
2018-07-08T06:17:55.859Z,0.50
2018-07-08T06:20:24.252Z,0.53
2018-07-08T06:22:52.335Z,0.67
2018-07-08T06:25:20.395Z,0.63
2018-07-08T06:27:48.451Z,0.30
2018-07-08T06:30:16.534Z,0.30
2018-07-08T06:32:44.603Z,0.70
2018-07-08T06:35:12.690Z,0.50
2018-07-08T06:37:40.746Z,0.50
2018-07-08T06:40:08.803Z,0.30
2018-07-08T06:42:36.871Z,0.33
2018-07-08T06:45:04.923Z,0.57
2018-07-08T06:47:32.998Z,0.40
2018-07-08T06:50:01.084Z,0.50
2018-07-08T06:52:29.134Z,0.30
2018-07-08T06:54:57.203Z,0.40
2018-07-08T06:57:25.268Z,0.80
2018-07-08T06:59:53.386Z,0.73
2018-07-08T07:02:21.447Z,0.50
2018-07-08T07:04:49.522Z,0.40
2018-07-08T07:07:17.575Z,0.73
2018-07-08T07:09:45.638Z,0.50
2018-07-08T07:12:13.691Z,0.50
2018-07-08T07:14:41.790Z,0.70
2018-07-08T07:17:09.843Z,0.30
2018-07-08T07:19:37.899Z,0.20
2018-07-08T07:22:05.975Z,0.60
2018-07-08T07:24:34.080Z,0.40
2018-07-08T07:27:02.127Z,0.70
2018-07-08T07:29:30.191Z,0.40
2018-07-08T07:31:58.258Z,0.50
2018-07-08T07:34:26.331Z,0.50
2018-07-08T07:36:54.436Z,0.67
2018-07-08T07:39:22.716Z,0.77
2018-07-08T07:41:51.135Z,1.00
2018-07-08T07:44:19.205Z,0.60
2018-07-08T07:46:47.258Z,0.40
2018-07-08T07:49:15.348Z,0.80
2018-07-08T07:51:43.410Z,0.40
2018-07-08T07:54:11.463Z,0.40
2018-07-08T07:56:39.514Z,0.43
2018-07-08T07:59:07.666Z,0.50
2018-07-08T08:01:35.647Z,0.90
2018-07-08T08:04:03.731Z,0.40
2018-07-08T08:06:31.790Z,0.40
2018-07-08T08:08:59.870Z,0.40
2018-07-08T08:11:27.918Z,0.50
2018-07-08T08:14:00.155Z,0.30
2018-07-08T08:16:28.227Z,0.57
2018-07-08T08:18:56.338Z,0.50
2018-07-08T08:21:24.865Z,0.77
2018-07-08T08:23:53.177Z,0.67
2018-07-08T08:26:21.245Z,0.40
2018-07-08T08:28:49.294Z,0.83
2018-07-08T08:31:17.582Z,0.60
2018-07-08T08:35:01.211Z,0.50
2018-07-08T08:37:33.458Z,0.60
2018-07-08T08:40:01.645Z,0.20
2018-07-08T08:42:29.691Z,0.43
2018-07-08T08:44:58.400Z,0.30
2018-07-08T08:47:26.971Z,0.53
2018-07-08T08:49:55.246Z,1.10
2018-07-08T08:52:23.351Z,0.50
2018-07-08T08:54:51.690Z,0.37
2018-07-08T08:57:19.751Z,0.47
2018-07-08T08:59:47.804Z,0.40
2018-07-08T09:02:15.856Z,0.40
2018-07-08T09:04:44.392Z,0.47
2018-07-08T09:07:14.715Z,0.33
2018-07-08T09:09:42.758Z,0.40
2018-07-08T09:12:11.367Z,0.30
2018-07-08T09:14:39.751Z,0.97
2018-07-08T09:17:07.874Z,0.40
2018-07-08T09:19:35.923Z,0.40
2018-07-08T09:22:04.038Z,0.80
2018-07-08T09:24:32.094Z,0.30
2018-07-08T09:27:00.451Z,0.80
2018-07-08T09:29:28.500Z,1.03
2018-07-08T09:31:56.560Z,0.30
2018-07-08T09:34:24.643Z,0.40
2018-07-08T09:36:52.702Z,0.70
2018-07-08T09:39:20.790Z,0.47
2018-07-08T09:41:48.842Z,0.50
2018-07-08T09:44:17.539Z,0.60
2018-07-08T09:46:46.506Z,0.40
2018-07-08T09:49:14.771Z,0.50
2018-07-08T09:51:43.059Z,0.60
2018-07-08T09:54:11.127Z,0.50
2018-07-08T09:56:39.204Z,0.30
2018-07-08T09:59:07.579Z,0.50
2018-07-08T10:01:38.819Z,0.60
2018-07-08T10:04:07.395Z,0.40
2018-07-08T10:06:35.459Z,0.40
2018-07-08T10:09:04.517Z,0.37
2018-07-08T10:11:32.575Z,4.27
2018-07-08T10:14:00.707Z,6.90
2018-07-08T10:16:28.754Z,8.80
2018-07-08T10:18:56.823Z,10.87
2018-07-08T10:21:24.930Z,12.33
2018-07-08T10:23:52.946Z,8.10
2018-07-08T10:26:21.019Z,9.57
2018-07-08T10:28:49.098Z,12.17
2018-07-08T10:31:17.151Z,14.43
2018-07-08T10:33:52.859Z,10.33
2018-07-08T10:36:21.191Z,5.23
2018-07-08T10:38:49.283Z,5.03
2018-07-08T10:41:17.347Z,7.57
2018-07-08T10:43:45.418Z,7.77
2018-07-08T10:46:13.483Z,10.07
2018-07-08T10:48:41.544Z,18.67
2018-07-08T10:51:09.745Z,7.67
2018-07-08T10:53:37.874Z,10.50
2018-07-08T10:56:05.926Z,6.40
2018-07-08T10:58:34.018Z,5.30
2018-07-08T11:01:02.435Z,5.97
2018-07-08T11:03:30.723Z,8.33
2018-07-08T11:05:58.826Z,6.73
2018-07-08T11:08:26.901Z,8.63
2018-07-08T11:10:55.275Z,6.23
2018-07-08T11:13:23.347Z,6.00
2018-07-08T11:15:51.444Z,5.43
2018-07-08T11:18:19.520Z,6.10
2018-07-08T11:20:47.613Z,5.80
2018-07-08T11:23:15.659Z,5.77
2018-07-08T11:25:43.743Z,6.80
2018-07-08T11:28:11.837Z,10.60
2018-07-08T11:30:40.103Z,4.93
2018-07-08T11:33:08.674Z,3.77
2018-07-08T11:35:36.749Z,5.27
2018-07-08T11:38:04.923Z,7.57
2018-07-08T11:40:33.023Z,2.43
2018-07-08T11:43:01.255Z,12.70
2018-07-08T11:45:29.227Z,5.53
2018-07-08T11:47:57.287Z,8.20
2018-07-08T11:50:25.367Z,8.80
2018-07-08T11:52:53.462Z,5.90
2018-07-08T11:55:21.536Z,9.30
2018-07-08T11:57:49.691Z,6.60
2018-07-08T12:00:17.806Z,3.90
2018-07-08T12:02:46.190Z,5.10
2018-07-08T12:05:14.418Z,4.67
2018-07-08T12:07:42.755Z,6.50
2018-07-08T12:10:10.974Z,7.20
2018-07-08T12:12:39.067Z,6.93
2018-07-08T12:15:07.151Z,4.67
2018-07-08T12:17:35.227Z,5.10
2018-07-08T12:20:03.310Z,2.27
2018-07-08T12:22:31.366Z,4.13
2018-07-08T12:24:59.785Z,4.07
2018-07-08T12:27:28.112Z,6.77
2018-07-08T12:29:56.331Z,5.47
2018-07-08T12:32:24.409Z,4.13
2018-07-08T12:34:52.502Z,5.73
2018-07-08T12:37:20.559Z,3.77
2018-07-08T12:39:48.623Z,3.83
2018-07-08T12:42:16.687Z,3.00
2018-07-08T12:44:44.950Z,4.43
2018-07-08T12:47:12.827Z,4.83
2018-07-08T12:49:40.867Z,5.73
2018-07-08T12:52:08.937Z,3.30
2018-07-08T12:54:36.986Z,3.97
2018-07-08T12:57:05.047Z,2.50
2018-07-08T12:59:33.374Z,4.20
2018-07-08T13:02:01.755Z,3.00
2018-07-08T13:04:29.810Z,5.50
2018-07-08T13:06:57.896Z,7.33
2018-07-08T13:09:25.963Z,5.30
2018-07-08T13:11:54.256Z,5.17
2018-07-08T13:14:22.322Z,4.03
2018-07-08T13:16:50.383Z,3.90
2018-07-08T13:19:18.454Z,5.43
2018-07-08T13:21:46.551Z,5.80
2018-07-08T13:24:14.610Z,3.60
2018-07-08T13:26:42.690Z,3.00
2018-07-08T13:29:10.746Z,4.93
2018-07-08T13:31:38.811Z,3.03
2018-07-08T13:34:06.863Z,3.50
2018-07-08T13:36:34.947Z,3.47
2018-07-08T13:39:04.589Z,2.97
2018-07-08T13:41:32.631Z,5.93
2018-07-08T13:44:00.697Z,6.37
2018-07-08T13:46:28.763Z,9.00
2018-07-08T13:48:56.833Z,13.10
2018-07-08T13:51:24.930Z,14.87
2018-07-08T13:53:53.003Z,8.10
2018-07-08T13:56:21.070Z,6.47
2018-07-08T13:58:49.146Z,6.33
2018-07-08T14:01:17.213Z,5.20
2018-07-08T14:03:45.279Z,7.27
2018-07-08T14:06:13.643Z,3.87
2018-07-08T14:08:41.779Z,7.60
2018-07-08T14:11:09.851Z,3.17
2018-07-08T14:13:37.916Z,4.97
2018-07-08T14:16:05.994Z,6.10
2018-07-08T14:18:34.044Z,3.50
2018-07-08T14:21:02.114Z,5.23
2018-07-08T14:23:30.173Z,10.47
2018-07-08T14:25:58.239Z,6.83
2018-07-08T14:28:26.294Z,6.47
2018-07-08T14:30:54.348Z,3.77
2018-07-08T14:33:22.566Z,6.37
2018-07-08T14:35:50.623Z,10.67
2018-07-08T14:38:18.684Z,5.30
2018-07-08T14:40:46.762Z,5.83
2018-07-08T14:43:14.805Z,6.50
2018-07-08T14:45:42.883Z,8.20
2018-07-08T14:48:10.947Z,7.47
2018-07-08T14:50:39.272Z,4.97
2018-07-08T14:53:07.347Z,6.63
2018-07-08T14:55:35.398Z,5.53
2018-07-08T14:58:03.502Z,5.97
2018-07-08T15:00:31.563Z,12.03
2018-07-08T15:02:59.638Z,7.00
2018-07-08T15:05:27.707Z,3.33
2018-07-08T15:07:56.075Z,6.90
2018-07-08T15:10:24.127Z,3.90
2018-07-08T15:12:52.224Z,6.83
2018-07-08T15:15:20.368Z,6.20
2018-07-08T15:17:48.401Z,5.57
2018-07-08T15:20:16.455Z,10.53
2018-07-08T15:22:44.526Z,7.57
2018-07-08T15:25:12.628Z,6.13
2018-07-08T15:27:40.683Z,9.63
2018-07-08T15:30:08.772Z,6.43
2018-07-08T15:32:36.817Z,7.67
2018-07-08T15:35:05.103Z,8.50
2018-07-08T15:37:33.171Z,6.27
2018-07-08T15:40:01.223Z,8.40
2018-07-08T15:42:29.295Z,8.07
2018-07-08T15:44:57.346Z,8.07
2018-07-08T15:47:25.475Z,11.17
2018-07-08T15:49:53.488Z,7.80
2018-07-08T15:52:21.543Z,15.80
2018-07-08T15:54:49.599Z,8.90
2018-07-08T15:57:17.705Z,10.80
2018-07-08T15:59:45.868Z,9.97
2018-07-08T16:02:13.927Z,7.13
2018-07-08T16:04:41.998Z,10.90
2018-07-08T16:07:10.066Z,8.17
2018-07-08T16:09:38.458Z,18.07
2018-07-08T16:12:06.630Z,12.33
2018-07-08T16:14:34.696Z,7.20
2018-07-08T16:17:02.854Z,12.07
2018-07-08T16:19:30.914Z,14.93
2018-07-08T16:21:59.011Z,6.33
2018-07-08T16:24:27.074Z,8.93
2018-07-08T16:26:55.539Z,8.77
2018-07-08T16:29:23.610Z,6.10
2018-07-08T16:31:51.654Z,7.67
2018-07-08T16:34:19.710Z,5.67
2018-07-08T16:36:47.759Z,6.10
2018-07-08T16:39:15.828Z,6.77
2018-07-08T16:41:43.875Z,6.20
2018-07-08T16:44:11.943Z,6.83
2018-07-08T16:46:40.015Z,4.80
2018-07-08T16:49:08.074Z,4.93
2018-07-08T16:51:36.139Z,5.47
2018-07-08T16:54:04.206Z,7.03
2018-07-08T16:56:32.262Z,5.17
2018-07-08T16:59:00.327Z,6.70
2018-07-08T17:01:28.652Z,5.90
2018-07-08T17:03:56.710Z,3.50
2018-07-08T17:06:25.015Z,2.73
2018-07-08T17:08:53.595Z,4.10
2018-07-08T17:11:21.650Z,5.07
2018-07-08T17:13:50.067Z,3.27
2018-07-08T17:16:18.165Z,4.43
2018-07-08T17:18:46.199Z,3.83
2018-07-08T17:21:14.255Z,5.57
2018-07-08T17:23:42.401Z,5.87
2018-07-08T17:26:10.458Z,6.57
2018-07-08T17:28:38.747Z,3.73
2018-07-08T17:31:07.812Z,3.10
2018-07-08T17:33:36.059Z,4.97
2018-07-08T17:36:04.173Z,2.40
2018-07-08T17:38:32.218Z,4.17
2018-07-08T17:41:00.309Z,4.80
2018-07-08T17:43:28.336Z,4.07
2018-07-08T17:45:56.699Z,3.13
2018-07-08T17:48:24.762Z,3.53
2018-07-08T17:50:52.827Z,6.97
2018-07-08T17:53:20.895Z,6.57
2018-07-08T17:55:49.657Z,2.63
2018-07-08T17:58:17.707Z,3.53
2018-07-08T18:00:45.759Z,2.50
2018-07-08T18:03:13.845Z,3.07
2018-07-08T18:05:41.882Z,5.40
2018-07-08T18:08:09.930Z,3.03
2018-07-08T18:10:37.999Z,2.30
2018-07-08T18:13:06.070Z,3.80
2018-07-08T18:15:34.548Z,7.67
2018-07-08T18:18:02.617Z,1.67
2018-07-08T18:20:31.086Z,3.10
2018-07-08T18:22:59.148Z,2.83
2018-07-08T18:25:27.217Z,3.67
2018-07-08T18:27:55.278Z,3.47
2018-07-08T18:30:23.350Z,4.10
2018-07-08T18:32:51.411Z,4.13
2018-07-08T18:35:19.475Z,3.00
2018-07-08T18:37:47.537Z,3.27
2018-07-08T18:40:16.021Z,3.03
2018-07-08T18:42:44.079Z,4.23
2018-07-08T18:45:12.155Z,2.93
2018-07-08T18:47:40.257Z,3.13
2018-07-08T18:50:08.319Z,4.17
2018-07-08T18:52:36.379Z,1.30
2018-07-08T18:55:04.667Z,1.10
2018-07-08T18:57:33.027Z,2.63
2018-07-08T19:00:01.148Z,3.17
2018-07-08T19:02:29.329Z,2.27
2018-07-08T19:04:57.519Z,1.73
2018-07-08T19:07:25.665Z,1.63
2018-07-08T19:09:53.966Z,2.17
2018-07-08T19:12:22.030Z,4.70
2018-07-08T19:14:50.111Z,2.43
2018-07-08T19:17:18.447Z,1.20
2018-07-08T19:19:46.527Z,2.10
2018-07-08T19:22:14.596Z,2.70
2018-07-08T19:24:42.682Z,3.07
2018-07-08T19:27:10.740Z,1.90
2018-07-08T19:29:38.813Z,1.70
2018-07-08T19:32:06.922Z,1.53
2018-07-08T19:34:34.995Z,1.73
2018-07-08T19:37:03.063Z,1.97
2018-07-08T19:39:31.350Z,1.47
2018-07-08T19:41:59.423Z,2.63
2018-07-08T19:44:27.487Z,3.40
2018-07-08T19:46:55.551Z,4.87
2018-07-08T19:49:23.612Z,5.10
2018-07-08T19:51:51.914Z,7.07
2018-07-08T19:54:20.031Z,3.47
2018-07-08T19:56:48.094Z,5.43
2018-07-08T19:59:16.151Z,6.80
2018-07-08T20:01:44.219Z,7.80
2018-07-08T20:04:12.307Z,5.67
2018-07-08T20:06:40.571Z,7.97
2018-07-08T20:09:09.090Z,7.13
2018-07-08T20:11:37.159Z,5.83
2018-07-08T20:14:05.231Z,6.63
2018-07-08T20:16:33.387Z,4.50
2018-07-08T20:19:01.347Z,5.60
2018-07-08T20:21:29.510Z,5.97
2018-07-08T20:23:57.789Z,4.27
2018-07-08T20:26:25.812Z,2.63
2018-07-08T20:28:53.883Z,4.07
2018-07-08T20:31:22.207Z,4.60
2018-07-08T20:33:50.671Z,3.40
2018-07-08T20:36:18.738Z,2.97
2018-07-08T20:38:46.831Z,7.57
2018-07-08T20:41:14.885Z,8.23
2018-07-08T20:43:42.934Z,6.40
2018-07-08T20:46:10.995Z,13.53
2018-07-08T20:48:39.167Z,6.40
2018-07-08T20:51:08.066Z,3.17
2018-07-08T20:53:36.176Z,7.70
2018-07-08T20:56:04.255Z,7.13
2018-07-08T20:58:32.618Z,7.93
2018-07-08T21:01:00.678Z,5.83
2018-07-08T21:03:28.775Z,7.20
2018-07-08T21:05:56.839Z,10.50
2018-07-08T21:08:24.887Z,4.30
2018-07-08T21:10:53.007Z,6.87
2018-07-08T21:13:21.062Z,8.20
2018-07-08T21:15:49.823Z,3.97
2018-07-08T21:18:17.891Z,4.90
2018-07-08T21:20:45.962Z,8.50
2018-07-08T21:23:14.357Z,4.00
2018-07-08T21:25:42.810Z,4.23
2018-07-08T21:28:10.878Z,3.50
2018-07-08T21:30:38.968Z,3.53
2018-07-08T21:33:07.243Z,4.43
2018-07-08T21:35:35.322Z,4.80
2018-07-08T21:38:03.705Z,3.57
2018-07-08T21:40:32.026Z,3.23
2018-07-08T21:43:00.087Z,3.63
2018-07-08T21:45:28.174Z,5.83
2018-07-08T21:47:56.246Z,5.17
2018-07-08T21:50:24.536Z,2.87
2018-07-08T21:52:52.610Z,3.03
2018-07-08T21:55:20.842Z,2.77
2018-07-08T21:57:48.902Z,3.97
2018-07-08T22:00:16.955Z,4.90
2018-07-08T22:02:45.043Z,4.60
2018-07-08T22:05:13.098Z,3.27
2018-07-08T22:07:46.551Z,2.00
2018-07-08T22:10:14.611Z,3.00
2018-07-08T22:12:42.666Z,2.43
2018-07-08T22:15:10.714Z,2.23
2018-07-08T22:17:38.774Z,6.30
2018-07-08T22:20:06.824Z,2.23
2018-07-08T22:22:34.875Z,4.70
2018-07-08T22:25:02.919Z,5.93
2018-07-08T22:27:30.979Z,4.73
2018-07-08T22:29:59.030Z,2.53
2018-07-08T22:32:27.097Z,2.80
2018-07-08T22:34:55.152Z,3.77
2018-07-08T22:37:23.209Z,3.60
2018-07-08T22:39:51.254Z,3.57
2018-07-08T22:42:19.357Z,2.80
2018-07-08T22:44:47.403Z,2.83
2018-07-08T22:47:15.471Z,2.13
2018-07-08T22:49:43.529Z,3.00
2018-07-08T22:52:11.575Z,3.40
2018-07-08T22:54:39.710Z,4.70
2018-07-08T22:57:07.762Z,2.63
2018-07-08T22:59:47.286Z,2.77
2018-07-08T23:02:26.779Z,2.43
2018-07-08T23:04:55.090Z,3.97
2018-07-08T23:07:23.150Z,2.70
2018-07-08T23:09:51.207Z,2.63
2018-07-08T23:12:19.301Z,3.50
2018-07-08T23:14:47.335Z,3.67
2018-07-08T23:17:15.398Z,4.07
2018-07-08T23:19:43.554Z,4.57
2018-07-08T23:22:13.351Z,4.67
2018-07-08T23:24:41.734Z,4.97
2018-07-08T23:27:09.790Z,3.80
2018-07-08T23:29:37.851Z,4.43
2018-07-08T23:32:05.786Z,3.70
2018-07-08T23:34:33.851Z,3.30
2018-07-08T23:37:01.911Z,3.27
2018-07-08T23:39:30.259Z,3.13
2018-07-08T23:41:58.314Z,4.63
2018-07-08T23:44:26.382Z,2.87
2018-07-08T23:46:54.441Z,4.67
2018-07-08T23:49:22.755Z,5.37
2018-07-08T23:51:50.823Z,2.70
2018-07-08T23:54:18.915Z,5.97
2018-07-08T23:56:47.291Z,4.93
2018-07-08T23:59:15.351Z,3.53
